createdAt,value
2022-12-18T00:01:25.234Z,20.67
2022-12-18T00:03:52.688Z,20.05
2022-12-18T00:06:19.554Z,23.13
2022-12-18T00:08:46.962Z,16.88
2022-12-18T00:11:15.562Z,19.40
2022-12-18T00:13:43.726Z,22.20
2022-12-18T00:16:13.252Z,24.40
2022-12-18T00:18:40.393Z,20.27
2022-12-18T00:21:09.909Z,22.30
2022-12-18T00:23:37.999Z,19.98
2022-12-18T00:26:07.454Z,23.95
2022-12-18T00:28:34.261Z,18.77
2022-12-18T00:31:03.173Z,17.55
2022-12-18T00:33:30.241Z,22.10
2022-12-18T00:36:01.727Z,20.15
2022-12-18T00:38:28.283Z,18.33
2022-12-18T00:40:54.703Z,23.83
2022-12-18T00:43:21.154Z,20.17
2022-12-18T00:45:47.625Z,19.35
2022-12-18T00:48:15.485Z,19.90
2022-12-18T00:50:42.164Z,20.52
2022-12-18T00:53:12.251Z,22.13
2022-12-18T00:55:38.782Z,22.52
2022-12-18T00:58:05.215Z,21.33
2022-12-18T01:00:31.621Z,20.77
2022-12-18T01:02:58.178Z,20.33
2022-12-18T01:05:26.794Z,22.55
2022-12-18T01:07:53.293Z,20.88
2022-12-18T01:10:20.013Z,21.80
2022-12-18T01:12:46.520Z,23.58
2022-12-18T01:15:14.447Z,19.25
2022-12-18T01:17:40.974Z,20.23
2022-12-18T01:20:08.626Z,23.45
2022-12-18T01:22:36.434Z,21.38
2022-12-18T01:25:04.518Z,23.55
2022-12-18T01:27:31.442Z,22.20
2022-12-18T01:29:57.871Z,19.85
2022-12-18T01:32:24.279Z,19.58
2022-12-18T01:34:50.732Z,20.17
2022-12-18T01:37:17.259Z,19.52
2022-12-18T01:39:45.046Z,20.95
2022-12-18T01:42:13.958Z,19.17
2022-12-18T01:44:59.072Z,19.77
2022-12-18T01:47:29.334Z,18.02
2022-12-18T01:49:57.835Z,17.85
2022-12-18T01:52:25.691Z,19.67
2022-12-18T01:54:54.577Z,18.23
2022-12-18T01:57:21.136Z,18.80
2022-12-18T01:59:52.636Z,22.35
2022-12-18T02:02:19.668Z,18.75
2022-12-18T02:04:49.566Z,20.60
2022-12-18T02:07:24.587Z,18.50
2022-12-18T02:09:59.876Z,19.25
2022-12-18T02:12:32.926Z,19.58
2022-12-18T02:15:03.652Z,20.55
2022-12-18T02:17:38.088Z,18.08
2022-12-18T02:20:13.044Z,18.33
2022-12-18T02:22:49.179Z,22.63
2022-12-18T02:25:30.920Z,18.77
2022-12-18T02:28:01.442Z,21.60
2022-12-18T02:30:32.301Z,19.67
2022-12-18T02:33:01.905Z,18.13
2022-12-18T02:35:31.083Z,19.73
2022-12-18T02:37:58.979Z,21.73
2022-12-18T02:40:28.163Z,17.77
2022-12-18T02:42:54.695Z,16.25
2022-12-18T02:45:22.499Z,17.85
2022-12-18T02:47:50.672Z,18.63
2022-12-18T02:50:23.436Z,20.13
2022-12-18T02:53:00.445Z,20.25
2022-12-18T02:55:35.954Z,21.15
2022-12-18T02:58:06.600Z,19.27
2022-12-18T03:00:40.161Z,18.23
2022-12-18T03:03:12.425Z,23.38
2022-12-18T03:05:44.484Z,21.17
2022-12-18T03:08:15.613Z,16.02
2022-12-18T03:10:50.362Z,35.53
2022-12-18T03:13:22.484Z,17.98
2022-12-18T03:15:54.005Z,19.60
2022-12-18T03:18:25.754Z,20.33
2022-12-18T03:20:54.825Z,21.08
2022-12-18T03:23:26.323Z,16.27
2022-12-18T03:25:56.778Z,20.25
2022-12-18T03:28:24.337Z,22.02
2022-12-18T03:30:56.723Z,19.33
2022-12-18T03:33:28.390Z,25.85
2022-12-18T03:35:54.862Z,21.73
2022-12-18T03:38:21.423Z,19.75
2022-12-18T03:40:57.765Z,21.05
2022-12-18T03:43:36.307Z,22.02
2022-12-18T03:46:08.906Z,20.75
2022-12-18T03:48:42.707Z,23.10
2022-12-18T03:53:45.002Z,24.58
2022-12-18T03:58:42.546Z,21.55
2022-12-18T04:01:14.570Z,18.90
2022-12-18T04:03:43.429Z,20.30
2022-12-18T04:06:10.894Z,20.10
2022-12-18T04:08:37.901Z,20.88
2022-12-18T04:11:04.593Z,23.38
2022-12-18T04:13:36.408Z,22.92
2022-12-18T04:16:03.562Z,21.52
2022-12-18T04:18:31.741Z,19.92
2022-12-18T04:20:58.146Z,23.25
2022-12-18T04:23:24.595Z,19.90
2022-12-18T04:25:50.996Z,22.83
2022-12-18T04:28:17.961Z,19.50
2022-12-18T04:30:44.455Z,18.92
2022-12-18T04:33:11.391Z,22.60
2022-12-18T04:35:39.495Z,22.05
2022-12-18T04:38:06.911Z,22.88
2022-12-18T04:40:33.400Z,21.50
2022-12-18T04:42:59.897Z,19.13
2022-12-18T04:45:26.706Z,18.73
2022-12-18T04:47:53.129Z,20.08
2022-12-18T04:50:19.541Z,19.20
2022-12-18T04:52:47.293Z,21.20
2022-12-18T04:55:13.689Z,19.38
2022-12-18T04:57:40.079Z,21.80
2022-12-18T05:00:08.077Z,18.40
2022-12-18T05:02:34.612Z,15.35
2022-12-18T05:05:01.166Z,21.95
2022-12-18T05:07:27.807Z,20.75
2022-12-18T05:09:55.550Z,17.80
2022-12-18T05:12:21.963Z,19.00
2022-12-18T05:14:48.562Z,19.65
2022-12-18T05:17:14.985Z,17.00
2022-12-18T05:19:41.387Z,17.35
2022-12-18T05:22:07.946Z,20.50
2022-12-18T05:24:34.477Z,19.45
2022-12-18T05:27:02.398Z,19.55
2022-12-18T05:29:28.815Z,16.15
2022-12-18T05:31:55.239Z,22.50
2022-12-18T05:34:21.782Z,19.65
2022-12-18T05:36:48.206Z,17.17
2022-12-18T05:39:14.601Z,18.45
2022-12-18T05:41:41.013Z,16.98
2022-12-18T05:44:09.381Z,18.20
2022-12-18T05:46:35.882Z,17.35
2022-12-18T05:49:02.703Z,17.15
2022-12-18T05:51:29.165Z,19.17
2022-12-18T05:53:55.824Z,15.85
2022-12-18T05:56:23.635Z,19.35
2022-12-18T05:58:52.481Z,19.25
2022-12-18T06:01:23.283Z,19.40
2022-12-18T06:03:49.769Z,18.48
2022-12-18T06:06:18.436Z,17.98
2022-12-18T06:08:46.630Z,18.38
2022-12-18T06:11:13.449Z,17.92
2022-12-18T06:13:40.293Z,19.27
2022-12-18T06:16:07.625Z,18.45
2022-12-18T06:18:35.592Z,16.08
2022-12-18T06:21:02.206Z,17.92
2022-12-18T06:23:28.910Z,17.65
2022-12-18T06:25:55.630Z,16.92
2022-12-18T06:28:22.329Z,15.38
2022-12-18T06:30:49.244Z,16.60
2022-12-18T06:33:16.401Z,16.88
2022-12-18T06:35:44.178Z,16.20
2022-12-18T06:38:10.587Z,19.40
2022-12-18T06:40:38.628Z,18.20
2022-12-18T06:43:05.217Z,16.08
2022-12-18T06:45:31.827Z,19.15
2022-12-18T06:47:58.261Z,15.07
2022-12-18T06:50:25.612Z,20.20
2022-12-18T06:52:53.375Z,16.30
2022-12-18T06:55:19.801Z,15.57
2022-12-18T06:57:46.241Z,15.23
2022-12-18T07:00:13.434Z,15.15
2022-12-18T07:02:39.915Z,13.68
2022-12-18T07:05:10.730Z,13.68
2022-12-18T07:07:37.608Z,16.23
2022-12-18T07:10:06.172Z,15.07
2022-12-18T07:12:32.590Z,17.73
2022-12-18T07:14:58.995Z,15.40
2022-12-18T07:17:25.427Z,16.98
2022-12-18T07:19:52.115Z,15.95
2022-12-18T07:22:18.908Z,15.50
2022-12-18T07:24:45.362Z,16.25
2022-12-18T07:27:13.289Z,16.40
2022-12-18T07:29:40.288Z,20.23
2022-12-18T07:32:06.857Z,15.25
2022-12-18T07:34:33.470Z,15.85
2022-12-18T07:36:59.891Z,16.85
2022-12-18T07:39:26.313Z,18.17
2022-12-18T07:41:52.772Z,19.70
2022-12-18T07:44:20.577Z,21.75
2022-12-18T07:46:47.022Z,15.13
2022-12-18T07:49:13.426Z,18.52
2022-12-18T07:51:39.804Z,19.80
2022-12-18T07:54:06.181Z,21.77
2022-12-18T07:56:32.755Z,19.73
2022-12-18T07:58:59.827Z,21.88
2022-12-18T08:01:27.927Z,21.38
2022-12-18T08:03:54.503Z,19.40
2022-12-18T08:06:22.517Z,19.70
2022-12-18T08:08:51.904Z,22.08
2022-12-18T08:11:18.326Z,21.92
2022-12-18T08:13:46.306Z,19.33
2022-12-18T08:16:12.792Z,14.90
2022-12-18T08:18:40.567Z,23.45
2022-12-18T08:21:10.504Z,17.20
2022-12-18T08:23:42.330Z,12.98
2022-12-18T08:26:09.697Z,17.88
2022-12-18T08:28:36.124Z,17.42
2022-12-18T08:31:02.638Z,17.33
2022-12-18T08:33:29.494Z,16.25
2022-12-18T08:35:59.074Z,16.35
2022-12-18T08:38:25.558Z,16.38
2022-12-18T08:40:59.717Z,17.98
2022-12-18T08:43:26.144Z,13.93
2022-12-18T08:45:52.621Z,16.55
2022-12-18T08:48:22.170Z,15.05
2022-12-18T08:50:55.155Z,13.75
2022-12-18T08:53:22.915Z,15.52
2022-12-18T08:55:50.462Z,13.93
2022-12-18T08:58:17.141Z,19.27
2022-12-18T09:00:43.544Z,18.13
2022-12-18T09:03:12.648Z,14.80
2022-12-18T09:05:39.142Z,19.10
2022-12-18T09:08:05.634Z,13.05
2022-12-18T09:10:34.269Z,16.00
2022-12-18T09:13:02.927Z,16.35
2022-12-18T09:15:29.322Z,13.30
2022-12-18T09:17:55.742Z,15.48
2022-12-18T09:20:22.159Z,16.63
2022-12-18T09:22:48.585Z,15.07
2022-12-18T09:25:15.027Z,14.30
2022-12-18T09:27:42.764Z,16.52
2022-12-18T09:30:10.471Z,15.05
2022-12-18T09:32:36.892Z,14.50
2022-12-18T09:35:03.906Z,14.75
2022-12-18T09:37:30.443Z,20.30
2022-12-18T09:39:56.838Z,15.73
2022-12-18T09:42:23.647Z,16.63
2022-12-18T09:44:54.175Z,15.30
2022-12-18T09:47:24.661Z,12.40
2022-12-18T09:49:55.550Z,16.35
2022-12-18T09:52:27.184Z,17.33
2022-12-18T09:54:59.373Z,14.15
2022-12-18T09:57:25.936Z,17.10
2022-12-18T09:59:57.205Z,17.85
2022-12-18T10:02:25.845Z,18.10
2022-12-18T10:05:02.950Z,15.18
2022-12-18T10:07:38.248Z,14.13
2022-12-18T10:10:13.378Z,17.38
2022-12-18T10:12:51.676Z,15.35
2022-12-18T10:15:25.332Z,14.23
2022-12-18T10:17:59.928Z,19.60
2022-12-18T10:20:32.871Z,16.55
2022-12-18T10:23:04.595Z,14.30
2022-12-18T10:25:40.059Z,14.30
2022-12-18T10:28:12.984Z,13.50
2022-12-18T10:30:42.250Z,14.85
2022-12-18T10:33:12.191Z,15.45
2022-12-18T10:35:42.359Z,13.40
2022-12-18T10:38:23.091Z,14.68
2022-12-18T10:40:52.651Z,11.02
2022-12-18T10:43:22.726Z,19.38
2022-12-18T10:46:03.041Z,13.63
2022-12-18T10:48:31.586Z,15.43
2022-12-18T10:51:14.123Z,14.45
2022-12-18T10:53:42.594Z,10.88
2022-12-18T10:56:09.549Z,13.30
2022-12-18T10:58:37.922Z,11.27
2022-12-18T11:01:09.593Z,10.00
2022-12-18T11:03:38.203Z,12.82
2022-12-18T11:06:08.143Z,11.45
2022-12-18T11:08:34.851Z,13.48
2022-12-18T11:11:01.564Z,13.55
2022-12-18T11:13:30.779Z,11.45
2022-12-18T11:15:57.978Z,13.52
2022-12-18T11:18:29.521Z,11.27
2022-12-18T11:20:58.865Z,15.70
2022-12-18T11:23:26.942Z,8.85
2022-12-18T11:26:01.739Z,12.57
2022-12-18T11:28:37.794Z,10.25
2022-12-18T11:31:25.635Z,16.38
2022-12-18T11:36:48.959Z,10.85
2022-12-18T11:39:21.434Z,13.35
2022-12-18T11:41:55.788Z,9.63
2022-12-18T11:44:28.667Z,10.32
2022-12-18T11:47:01.159Z,10.13
2022-12-18T11:49:34.188Z,13.88
2022-12-18T11:52:05.593Z,9.82
2022-12-18T11:54:32.033Z,9.10
2022-12-18T11:57:10.878Z,10.55
2022-12-18T11:59:49.723Z,9.23
2022-12-18T12:02:30.841Z,11.60
2022-12-18T12:05:15.259Z,11.23
2022-12-18T12:07:49.027Z,13.10
2022-12-18T12:13:08.643Z,12.98
2022-12-18T12:15:42.919Z,12.77
2022-12-18T12:18:25.465Z,13.48
2022-12-18T12:21:03.552Z,13.75
2022-12-18T12:23:42.430Z,13.30
2022-12-18T12:26:12.606Z,15.68
2022-12-18T12:29:22.806Z,15.30
2022-12-18T12:32:01.868Z,13.52
2022-12-18T12:34:35.439Z,12.48
2022-12-18T12:37:19.795Z,10.80
2022-12-18T12:39:47.914Z,12.23
2022-12-18T12:42:21.009Z,9.38
2022-12-18T12:44:56.326Z,11.25
2022-12-18T12:47:29.201Z,11.55
2022-12-18T12:49:58.984Z,12.05
2022-12-18T12:52:33.216Z,13.02
2022-12-18T12:55:01.878Z,16.05
2022-12-18T12:57:35.218Z,14.25
2022-12-18T13:00:06.024Z,14.68
2022-12-18T13:02:40.302Z,15.35
2022-12-18T13:05:17.214Z,18.23
2022-12-18T13:07:51.055Z,15.15
2022-12-18T13:10:35.408Z,16.65
2022-12-18T13:13:04.931Z,17.10
2022-12-18T13:18:25.382Z,17.23
2022-12-18T13:21:04.666Z,17.58
2022-12-18T13:23:36.881Z,18.23
2022-12-18T13:26:33.688Z,20.73
2022-12-18T13:29:00.882Z,19.10
2022-12-18T13:31:59.928Z,19.70
2022-12-18T13:34:29.342Z,21.17
2022-12-18T13:36:58.352Z,18.75
2022-12-18T13:39:35.181Z,17.40
2022-12-18T13:42:38.682Z,19.25
2022-12-18T13:45:47.567Z,23.35
2022-12-18T13:48:19.687Z,19.75
2022-12-18T13:50:55.703Z,22.85
2022-12-18T13:53:25.735Z,23.30
2022-12-18T13:55:52.549Z,22.10
2022-12-18T13:58:19.088Z,22.75
2022-12-18T14:00:47.051Z,19.23
2022-12-18T14:03:22.843Z,25.73
2022-12-18T14:05:56.683Z,22.58
2022-12-18T14:10:52.332Z,27.08
2022-12-18T14:13:25.142Z,29.27
2022-12-18T14:15:53.140Z,27.98
2022-12-18T14:18:25.192Z,22.67
2022-12-18T14:20:53.544Z,24.83
2022-12-18T14:23:29.052Z,24.98
2022-12-18T14:25:55.684Z,28.35
2022-12-18T14:28:23.920Z,29.30
2022-12-18T14:30:51.127Z,26.67
2022-12-18T14:33:20.727Z,27.02
2022-12-18T14:35:55.208Z,27.10
2022-12-18T14:38:25.233Z,26.95
2022-12-18T14:40:54.023Z,38.95
2022-12-18T14:43:20.911Z,28.27
2022-12-18T14:45:48.434Z,27.02
2022-12-18T14:48:19.009Z,22.88
2022-12-18T14:50:59.533Z,29.20
2022-12-18T14:53:34.661Z,26.70
2022-12-18T14:56:01.748Z,29.60
2022-12-18T14:58:28.366Z,27.48
2022-12-18T15:00:55.641Z,29.23
2022-12-18T15:03:22.886Z,27.30
2022-12-18T15:05:49.674Z,29.23
2022-12-18T15:08:32.065Z,26.67
2022-12-18T15:10:59.379Z,29.83
2022-12-18T15:13:26.154Z,27.85
2022-12-18T15:15:53.637Z,27.08
2022-12-18T15:18:22.132Z,31.92
2022-12-18T15:20:50.469Z,29.65
2022-12-18T15:23:20.345Z,28.70
2022-12-18T15:25:55.896Z,26.73
2022-12-18T15:28:25.454Z,28.88
2022-12-18T15:31:03.878Z,32.63
2022-12-18T15:33:33.909Z,29.40
2022-12-18T15:36:02.504Z,30.85
2022-12-18T15:38:28.938Z,27.77
2022-12-18T15:40:57.377Z,27.83
2022-12-18T15:43:25.299Z,26.77
2022-12-18T15:45:51.691Z,31.42
2022-12-18T15:48:22.221Z,26.40
2022-12-18T15:50:49.187Z,30.48
2022-12-18T15:53:15.791Z,29.75
2022-12-18T15:55:42.324Z,29.67
2022-12-18T15:58:11.354Z,31.58
2022-12-18T16:00:40.867Z,34.20
2022-12-18T16:03:07.682Z,30.27
2022-12-18T16:05:34.229Z,32.00
2022-12-18T16:08:00.699Z,31.73
2022-12-18T16:10:27.265Z,31.50
2022-12-18T16:12:53.736Z,23.95
2022-12-18T16:15:24.799Z,36.47
2022-12-18T16:17:52.112Z,30.35
2022-12-18T16:20:20.896Z,30.90
2022-12-18T16:22:47.893Z,28.52
2022-12-18T16:25:21.017Z,30.27
2022-12-18T16:27:47.578Z,29.20
2022-12-18T16:30:16.167Z,28.65
2022-12-18T16:32:44.306Z,25.55
2022-12-18T16:35:12.092Z,29.38
2022-12-18T16:37:38.647Z,29.55
2022-12-18T16:40:07.319Z,28.27
2022-12-18T16:42:33.730Z,26.30
2022-12-18T16:45:00.127Z,27.88
2022-12-18T16:47:26.576Z,30.80
2022-12-18T16:49:54.320Z,28.77
2022-12-18T16:52:22.313Z,24.33
2022-12-18T16:54:49.074Z,25.02
2022-12-18T16:57:17.570Z,28.13
2022-12-18T16:59:44.051Z,26.30
2022-12-18T17:02:13.898Z,25.17
2022-12-18T17:04:40.394Z,27.27
2022-12-18T17:07:08.174Z,25.60
2022-12-18T17:09:34.819Z,25.85
2022-12-18T17:12:04.211Z,21.40
2022-12-18T17:14:32.718Z,24.38
2022-12-18T17:17:20.477Z,22.45
2022-12-18T17:19:45.742Z,26.88
2022-12-18T17:22:13.493Z,22.65
2022-12-18T17:24:39.901Z,20.88
2022-12-18T17:27:06.361Z,22.52
2022-12-18T17:29:32.927Z,22.05
2022-12-18T17:32:00.416Z,23.65
2022-12-18T17:34:29.751Z,19.50
2022-12-18T17:36:56.602Z,22.75
2022-12-18T17:39:24.336Z,19.00
2022-12-18T17:41:50.755Z,25.02
2022-12-18T17:44:17.877Z,19.85
2022-12-18T17:46:44.498Z,22.70
2022-12-18T17:49:11.474Z,23.13
2022-12-18T17:51:37.939Z,27.60
2022-12-18T17:54:04.779Z,22.60
2022-12-18T17:56:32.551Z,24.52
2022-12-18T17:58:59.682Z,21.63
2022-12-18T18:01:27.023Z,18.27
2022-12-18T18:03:54.481Z,19.23
2022-12-18T18:06:21.401Z,18.35
2022-12-18T18:08:48.061Z,17.65
2022-12-18T18:11:17.599Z,21.15
2022-12-18T18:13:47.193Z,19.55
2022-12-18T18:16:13.900Z,20.38
2022-12-18T18:18:40.428Z,22.25
2022-12-18T18:21:08.679Z,20.30
2022-12-18T18:23:35.991Z,21.17
2022-12-18T18:26:03.653Z,20.48
2022-12-18T18:28:31.041Z,19.77
2022-12-18T18:31:03.636Z,20.23
2022-12-18T18:33:30.256Z,19.25
2022-12-18T18:35:56.679Z,18.27
2022-12-18T18:38:23.124Z,19.63
2022-12-18T18:40:58.179Z,17.50
2022-12-18T18:43:24.642Z,16.27
2022-12-18T18:45:55.095Z,14.48
2022-12-18T18:48:22.944Z,19.02
2022-12-18T18:50:56.135Z,16.75
2022-12-18T18:53:22.559Z,15.77
2022-12-18T18:56:03.961Z,19.25
2022-12-18T18:58:35.505Z,16.95
2022-12-18T19:01:04.896Z,16.02
2022-12-18T19:03:33.696Z,15.25
2022-12-18T19:06:01.372Z,18.02
2022-12-18T19:08:30.161Z,13.10
2022-12-18T19:10:59.064Z,16.17
2022-12-18T19:13:27.984Z,16.23
2022-12-18T19:15:56.036Z,13.70
2022-12-18T19:18:23.289Z,15.32
2022-12-18T19:20:59.024Z,17.80
2022-12-18T19:23:25.625Z,14.10
2022-12-18T19:25:59.484Z,17.88
2022-12-18T19:28:38.893Z,18.25
2022-12-18T19:31:07.846Z,15.43
2022-12-18T19:33:44.137Z,13.35
2022-12-18T19:36:15.048Z,12.52
2022-12-18T19:38:44.135Z,14.88
2022-12-18T19:41:12.453Z,12.50
2022-12-18T19:43:40.642Z,13.07
2022-12-18T19:46:08.232Z,12.10
2022-12-18T19:48:35.170Z,11.18
2022-12-18T19:51:04.888Z,11.45
2022-12-18T19:53:32.690Z,14.68
2022-12-18T19:55:59.289Z,12.95
2022-12-18T19:58:25.753Z,15.20
2022-12-18T20:00:52.188Z,12.80
2022-12-18T20:03:27.351Z,13.05
2022-12-18T20:06:08.110Z,10.63
2022-12-18T20:08:35.890Z,12.75
2022-12-18T20:11:02.330Z,15.25
2022-12-18T20:13:28.778Z,12.75
2022-12-18T20:15:55.207Z,14.68
2022-12-18T20:18:21.637Z,11.18
2022-12-18T20:20:49.326Z,11.40
2022-12-18T20:23:17.278Z,11.05
2022-12-18T20:25:45.223Z,15.95
2022-12-18T20:28:11.673Z,13.25
2022-12-18T20:30:38.155Z,12.90
2022-12-18T20:33:04.989Z,11.88
2022-12-18T20:35:32.145Z,14.23
2022-12-18T20:37:59.213Z,12.75
2022-12-18T20:40:27.441Z,12.30
2022-12-18T20:42:55.221Z,12.50
2022-12-18T20:45:21.859Z,14.27
2022-12-18T20:47:48.238Z,13.80
2022-12-18T20:50:14.724Z,14.38
2022-12-18T20:52:41.163Z,15.27
2022-12-18T20:55:08.177Z,13.35
2022-12-18T20:57:35.160Z,13.18
2022-12-18T21:00:05.921Z,14.00
2022-12-18T21:02:33.371Z,12.45
2022-12-18T21:04:59.982Z,14.80
2022-12-18T21:07:26.361Z,15.15
2022-12-18T21:09:53.023Z,16.08
2022-12-18T21:12:20.009Z,11.40
2022-12-18T21:14:46.480Z,17.63
2022-12-18T21:17:16.147Z,15.50
2022-12-18T21:19:42.616Z,15.05
2022-12-18T21:22:09.954Z,12.30
2022-12-18T21:24:36.466Z,17.42
2022-12-18T21:27:03.115Z,16.15
2022-12-18T21:29:29.509Z,16.33
2022-12-18T21:31:55.984Z,16.35
2022-12-18T21:34:25.712Z,15.20
2022-12-18T21:36:52.250Z,14.48
2022-12-18T21:39:19.917Z,17.02
2022-12-18T21:41:49.353Z,15.82
2022-12-18T21:44:18.834Z,14.73
2022-12-18T21:46:51.517Z,16.30
2022-12-18T21:49:20.494Z,16.20
2022-12-18T21:51:49.782Z,17.00
2022-12-18T21:54:16.472Z,16.08
2022-12-18T21:56:45.044Z,15.73
2022-12-18T21:59:13.024Z,19.58
2022-12-18T22:01:39.585Z,17.98
2022-12-18T22:04:06.214Z,13.85
2022-12-18T22:06:32.639Z,15.73
2022-12-18T22:09:00.414Z,16.52
2022-12-18T22:11:26.861Z,17.02
2022-12-18T22:13:53.311Z,15.73
2022-12-18T22:16:19.805Z,16.15
2022-12-18T22:18:46.413Z,18.27
2022-12-18T22:21:28.527Z,17.40
2022-12-18T22:23:56.752Z,15.40
2022-12-18T22:26:25.982Z,17.17
2022-12-18T22:28:52.511Z,17.08
2022-12-18T22:31:18.981Z,15.93
2022-12-18T22:33:45.423Z,15.93
2022-12-18T22:36:12.890Z,15.68
2022-12-18T22:38:39.340Z,15.40
2022-12-18T22:41:05.944Z,14.23
2022-12-18T22:43:33.712Z,16.58
2022-12-18T22:46:03.050Z,15.77
2022-12-18T22:48:29.536Z,17.30
2022-12-18T22:50:56.751Z,19.52
2022-12-18T22:53:26.180Z,15.90
2022-12-18T22:56:00.263Z,14.30
2022-12-18T22:58:26.695Z,16.88
2022-12-18T23:00:54.479Z,17.30
2022-12-18T23:03:20.884Z,18.67
2022-12-18T23:05:47.329Z,19.98
2022-12-18T23:08:13.718Z,17.73
2022-12-18T23:10:40.132Z,14.23
2022-12-18T23:13:06.618Z,16.80
2022-12-18T23:15:33.052Z,15.88
2022-12-18T23:18:00.791Z,18.13
2022-12-18T23:20:28.149Z,18.50
2022-12-18T23:22:54.678Z,18.27
2022-12-18T23:25:21.090Z,16.30
2022-12-18T23:27:47.539Z,16.85
2022-12-18T23:30:14.034Z,16.10
2022-12-18T23:32:40.460Z,19.48
2022-12-18T23:35:08.686Z,15.70
2022-12-18T23:37:58.373Z,17.20
2022-12-18T23:40:23.283Z,16.48
2022-12-18T23:42:49.686Z,13.73
2022-12-18T23:45:17.938Z,18.67
2022-12-18T23:47:44.886Z,17.95
2022-12-18T23:50:15.031Z,17.08
2022-12-18T23:52:41.676Z,14.98
2022-12-18T23:55:08.640Z,16.20
2022-12-18T23:57:35.052Z,16.88
